Time;durP1;ratioP1;P1;durP2;ratioP2;P2;SDS_P1;SDS_P2;PMS_P1;PMS_P2;Temp;Humidity;BMP_temperature;BMP_pressure;BME280_temperature;BME280_humidity;BME280_pressure;Samples;Min_cycle;Max_cycle;Signal;HPM_P1;HPM_P2
2021/03/17 00:02:51;;;;;;;16.65;9.70;;;3.90;82.70;;;;;;5048179;28;20517;-66
2021/03/17 00:06:15;;;;;;;15.45;8.80;;;3.70;84.50;;;;;;5029220;28;20048;-67
2021/03/17 00:09:37;;;;;;;19.23;8.98;;;3.70;85.70;;;;;;5044065;28;20044;-66
2021/03/17 00:13:01;;;;;;;16.50;9.57;;;3.80;87.60;;;;;;5043605;28;20439;-66
2021/03/17 00:16:24;;;;;;;20.52;9.57;;;3.80;87.90;;;;;;5037610;28;20053;-66
2021/03/17 00:19:48;;;;;;;18.33;10.60;;;3.90;88.70;;;;;;5030763;28;20068;-66
2021/03/17 00:23:11;;;;;;;17.80;9.73;;;4.00;89.00;;;;;;5031604;28;20041;-67
2021/03/17 00:26:34;;;;;;;23.15;11.27;;;3.90;89.20;;;;;;5030213;28;20407;-66
2021/03/17 00:29:57;;;;;;;19.83;11.38;;;3.90;90.40;;;;;;5031664;28;20112;-67
2021/03/17 00:33:21;;;;;;;24.85;12.38;;;3.80;90.80;;;;;;5031500;28;20125;-66
2021/03/17 00:36:44;;;;;;;19.90;11.68;;;3.80;91.00;;;;;;5030518;28;20036;-66
2021/03/17 00:40:07;;;;;;;22.25;11.98;;;3.70;91.90;;;;;;5039574;28;20056;-65
2021/03/17 00:43:30;;;;;;;31.98;13.77;;;3.60;92.50;;;;;;5029693;28;20060;-66
2021/03/17 00:46:53;;;;;;;56.45;24.45;;;3.70;92.50;;;;;;5029495;28;20053;-66
2021/03/17 00:50:05;;;;;;;63.97;26.40;;;3.60;93.50;;;;;;5029574;28;20056;-67
2021/03/17 00:53:09;;;;;;;18.17;10.60;;;3.50;94.20;;;;;;5029458;28;20032;-66
2021/03/17 00:56:14;;;;;;;22.48;12.05;;;3.50;93.70;;;;;;5029077;28;20048;-66
2021/03/17 00:59:35;;;;;;;23.20;11.50;;;3.50;93.10;;;;;;5029209;28;20049;-66
2021/03/17 01:02:39;;;;;;;15.50;7.95;;;3.60;93.50;;;;;;5029416;28;20053;-66
2021/03/17 01:05:44;;;;;;;19.90;7.82;;;3.70;92.80;;;;;;5029131;28;20040;-65
2021/03/17 01:08:48;;;;;;;12.45;5.40;;;3.70;91.00;;;;;;5029109;28;20099;-64
2021/03/17 01:11:52;;;;;;;11.32;4.28;;;3.80;90.70;;;;;;5037012;28;20044;-65
2021/03/17 01:14:56;;;;;;;8.43;4.53;;;3.80;90.90;;;;;;5028964;28;20104;-66
2021/03/17 01:18:00;;;;;;;11.63;6.20;;;3.80;90.20;;;;;;5028789;28;20026;-65
2021/03/17 01:21:04;;;;;;;12.48;6.07;;;3.90;89.00;;;;;;5029137;28;20435;-66
2021/03/17 01:24:10;;;;;;;7.10;4.53;;;4.10;88.70;;;;;;5029235;28;20052;-65
2021/03/17 01:27:14;;;;;;;7.70;5.32;;;4.20;88.30;;;;;;5028294;28;20029;-65
2021/03/17 01:30:22;;;;;;;10.20;5.80;;;4.10;87.90;;;;;;5031101;28;20049;-64
2021/03/17 01:33:28;;;;;;;8.43;5.45;;;4.20;88.20;;;;;;5032918;28;20068;-66
2021/03/17 01:36:32;;;;;;;12.98;6.15;;;4.10;88.90;;;;;;5032784;28;20033;-65
2021/03/17 01:39:37;;;;;;;9.32;5.57;;;4.00;88.70;;;;;;5052047;28;20052;-65
2021/03/17 01:42:41;;;;;;;8.50;5.93;;;4.00;89.10;;;;;;5042706;28;20045;-65
2021/03/17 01:45:46;;;;;;;10.75;6.97;;;4.00;88.90;;;;;;5045289;28;20041;-67
2021/03/17 01:48:51;;;;;;;10.60;6.60;;;4.00;88.30;;;;;;5039317;28;20065;-66
2021/03/17 01:51:55;;;;;;;9.63;5.72;;;4.00;89.60;;;;;;5032764;28;20046;-66
2021/03/17 01:54:59;;;;;;;9.15;6.05;;;3.90;89.30;;;;;;5038868;28;20037;-65
2021/03/17 01:58:03;;;;;;;9.95;5.72;;;3.80;88.90;;;;;;5033671;28;20488;-65
2021/03/17 02:01:08;;;;;;;9.02;6.30;;;3.80;90.20;;;;;;5032620;28;20484;-66
2021/03/17 02:04:12;;;;;;;8.95;5.32;;;3.70;90.40;;;;;;5032238;28;20392;-66
2021/03/17 02:07:19;;;;;;;11.55;6.55;;;3.50;90.30;;;;;;5032362;28;20491;-66
2021/03/17 02:10:24;;;;;;;10.82;6.80;;;3.50;90.70;;;;;;5032319;28;20048;-64
2021/03/17 02:13:40;;;;;;;13.77;6.45;;;3.30;91.30;;;;;;5046060;28;20048;-65
2021/03/17 02:17:01;;;;;;;13.32;8.30;;;3.10;92.60;;;;;;5031793;28;20041;-66
2021/03/17 02:20:30;;;;;;;18.15;10.73;;;2.80;95.80;;;;;;5032832;28;20048;-66
2021/03/17 02:23:53;;;;;;;15.77;9.18;;;2.60;98.60;;;;;;5030747;28;20041;-65
2021/03/17 02:27:35;;;;;;;16.75;9.85;;;2.40;99.10;;;;;;5031707;28;20040;-65
2021/03/17 02:31:16;;;;;;;17.83;11.05;;;2.30;99.90;;;;;;5031866;28;20427;-65
2021/03/17 02:34:26;;;;;;;22.63;11.73;;;2.20;99.90;;;;;;5031939;28;20056;-66
2021/03/17 02:37:32;;;;;;;20.77;11.50;;;2.10;99.90;;;;;;5031515;28;20515;-66
2021/03/17 02:40:40;;;;;;;20.77;11.63;;;2.10;99.90;;;;;;5031186;28;20048;-66
2021/03/17 02:43:48;;;;;;;19.67;11.82;;;2.00;99.90;;;;;;5031609;28;20064;-66
2021/03/17 02:46:56;;;;;;;19.13;12.55;;;2.00;99.90;;;;;;5043871;28;20044;-66
2021/03/17 02:50:05;;;;;;;21.25;12.50;;;2.00;99.90;;;;;;5040630;28;20045;-66
2021/03/17 02:53:13;;;;;;;28.92;12.70;;;1.90;99.90;;;;;;5031400;28;20621;-66
2021/03/17 02:56:18;;;;;;;19.85;11.40;;;1.80;99.90;;;;;;5031247;28;20515;-65
2021/03/17 02:59:23;;;;;;;17.25;11.23;;;1.70;99.90;;;;;;5030753;28;20534;-66
2021/03/17 03:02:29;;;;;;;21.02;12.48;;;1.70;99.90;;;;;;5031259;28;20677;-66
2021/03/17 03:05:33;;;;;;;22.83;12.55;;;1.70;99.90;;;;;;5031329;28;20040;-66
2021/03/17 03:08:42;;;;;;;21.23;12.68;;;1.70;99.90;;;;;;5041300;28;20048;-66
2021/03/17 03:11:48;;;;;;;24.70;13.20;;;1.70;99.90;;;;;;5034698;28;20428;-65
2021/03/17 03:14:56;;;;;;;20.75;11.75;;;1.70;99.90;;;;;;5031515;28;20048;-63
2021/03/17 03:18:03;;;;;;;25.25;11.93;;;1.70;99.90;;;;;;5031038;28;20060;-66
2021/03/17 03:21:09;;;;;;;22.42;12.40;;;1.80;99.90;;;;;;5031486;28;20052;-66
2021/03/17 03:24:16;;;;;;;20.65;11.65;;;1.80;99.90;;;;;;5031230;28;20408;-66
2021/03/17 03:27:22;;;;;;;20.83;10.57;;;2.00;99.90;;;;;;5040958;28;20044;-64
2021/03/17 03:30:27;;;;;;;16.50;9.10;;;2.00;99.90;;;;;;5029562;28;20048;-66
2021/03/17 03:33:33;;;;;;;16.15;9.38;;;2.10;99.90;;;;;;5031110;28;20048;-66
2021/03/17 03:36:36;;;;;;;16.90;9.32;;;2.10;99.90;;;;;;5030568;28;20052;-66
2021/03/17 03:39:40;;;;;;;15.30;9.57;;;2.20;99.90;;;;;;5031173;28;20052;-66
2021/03/17 03:42:45;;;;;;;21.27;10.15;;;2.30;99.90;;;;;;5031473;28;20052;-65
2021/03/17 03:45:50;;;;;;;18.75;10.20;;;2.30;99.90;;;;;;5034954;28;20059;-66
2021/03/17 03:48:54;;;;;;;16.70;9.10;;;2.30;99.90;;;;;;5034698;28;20103;-66
2021/03/17 03:52:06;;;;;;;17.13;8.93;;;2.20;99.90;;;;;;5031199;28;20117;-66
2021/03/17 03:55:21;;;;;;;14.93;9.10;;;2.10;99.90;;;;;;5039753;28;20042;-66
2021/03/17 03:58:32;;;;;;;23.10;8.38;;;2.10;99.90;;;;;;5030401;28;20048;-64
2021/03/17 04:01:55;;;;;;;11.77;7.65;;;2.00;99.90;;;;;;5030644;28;20044;-63
2021/03/17 04:05:00;;;;;;;13.50;7.95;;;1.90;99.90;;;;;;5030846;28;20288;-66
2021/03/17 04:08:25;;;;;;;12.45;7.10;;;1.80;99.90;;;;;;5030247;28;20044;-65
2021/03/17 04:11:30;;;;;;;11.70;7.38;;;1.80;99.90;;;;;;5029930;28;20052;-66
2021/03/17 04:14:35;;;;;;;10.82;7.20;;;1.80;99.90;;;;;;5029926;28;20408;-66
2021/03/17 04:17:43;;;;;;;14.45;9.27;;;1.90;99.90;;;;;;5029758;28;20416;-66
2021/03/17 04:20:50;;;;;;;11.52;7.00;;;1.90;99.90;;;;;;5029857;28;20052;-65
2021/03/17 04:23:58;;;;;;;13.18;6.90;;;1.90;99.90;;;;;;5039712;28;20040;-63
2021/03/17 04:27:04;;;;;;;13.52;7.80;;;2.00;99.90;;;;;;5030513;28;20032;-65
2021/03/17 04:30:10;;;;;;;14.80;6.93;;;2.10;99.90;;;;;;5030392;28;20040;-64
2021/03/17 04:33:16;;;;;;;14.80;7.28;;;2.10;99.90;;;;;;5029647;28;20436;-66
2021/03/17 04:36:21;;;;;;;15.55;7.93;;;2.00;99.90;;;;;;5029518;28;20045;-64
2021/03/17 04:39:27;;;;;;;12.95;7.82;;;2.10;99.90;;;;;;5029116;28;20044;-64
2021/03/17 04:42:32;;;;;;;11.98;6.70;;;2.00;99.90;;;;;;5040933;28;20050;-65
2021/03/17 04:45:38;;;;;;;15.45;8.15;;;1.90;99.90;;;;;;5031695;28;20467;-65
2021/03/17 04:48:44;;;;;;;12.00;7.47;;;1.80;99.90;;;;;;5035864;28;20053;-66
2021/03/17 04:51:49;;;;;;;12.68;7.60;;;1.70;99.90;;;;;;5029385;28;20053;-66
2021/03/17 04:54:54;;;;;;;14.43;6.93;;;1.60;99.90;;;;;;5029630;28;20041;-65
2021/03/17 04:58:00;;;;;;;14.65;7.95;;;1.50;99.90;;;;;;5043403;28;20395;-66
2021/03/17 05:01:07;;;;;;;14.85;7.68;;;1.40;99.90;;;;;;5028406;28;20036;-66
2021/03/17 05:04:13;;;;;;;18.05;7.50;;;1.40;99.90;;;;;;5028720;28;20411;-66
2021/03/17 05:07:18;;;;;;;14.30;8.45;;;1.40;99.90;;;;;;5029371;28;20609;-64
2021/03/17 05:10:25;;;;;;;12.50;7.85;;;1.40;99.90;;;;;;5028668;28;20040;-64
2021/03/17 05:13:30;;;;;;;13.90;8.25;;;1.40;99.90;;;;;;5029052;28;20370;-65
2021/03/17 05:16:35;;;;;;;17.45;8.75;;;1.40;99.90;;;;;;5028851;28;20049;-66
2021/03/17 05:19:41;;;;;;;14.52;8.30;;;1.20;99.90;;;;;;5029144;28;20052;-66
2021/03/17 05:22:48;;;;;;;20.17;10.48;;;1.10;99.90;;;;;;5029033;28;20041;-66
2021/03/17 05:25:54;;;;;;;15.85;9.63;;;1.10;99.90;;;;;;5029173;28;20056;-65
2021/03/17 05:29:00;;;;;;;22.77;9.82;;;1.10;99.90;;;;;;5028738;28;20064;-65
2021/03/17 05:32:06;;;;;;;16.88;9.02;;;1.00;99.90;;;;;;5028707;28;20036;-65
2021/03/17 05:35:11;;;;;;;16.08;9.05;;;1.00;99.90;;;;;;5028463;28;20037;-66
2021/03/17 05:38:15;;;;;;;15.30;9.20;;;1.00;99.90;;;;;;5029016;28;20052;-63
2021/03/17 05:41:20;;;;;;;16.25;8.55;;;1.10;99.90;;;;;;5028402;28;20064;-65
2021/03/17 05:44:25;;;;;;;16.60;8.13;;;1.10;99.90;;;;;;5029001;28;20045;-66
2021/03/17 05:47:30;;;;;;;16.92;9.13;;;1.10;99.90;;;;;;5042731;28;20051;-61
2021/03/17 05:50:34;;;;;;;16.02;8.73;;;1.10;99.90;;;;;;5040548;28;20044;-66
2021/03/17 05:53:39;;;;;;;21.15;10.02;;;1.00;99.90;;;;;;5029103;28;20048;-64
2021/03/17 05:56:45;;;;;;;20.90;10.70;;;0.90;99.90;;;;;;5028885;28;20063;-65
2021/03/17 05:59:50;;;;;;;19.85;10.38;;;0.90;99.90;;;;;;5034232;28;20056;-65
2021/03/17 06:02:54;;;;;;;19.73;10.80;;;0.80;99.90;;;;;;5027925;28;20048;-64
2021/03/17 06:05:59;;;;;;;20.65;9.65;;;0.90;99.90;;;;;;5028578;28;20053;-64
2021/03/17 06:09:08;;;;;;;20.67;10.13;;;0.90;99.90;;;;;;5028961;28;20052;-66
2021/03/17 06:12:14;;;;;;;17.48;9.93;;;1.20;99.90;;;;;;5027253;28;20048;-67
2021/03/17 06:15:23;;;;;;;16.00;7.97;;;4.20;99.90;;;;;;5032805;28;20048;-67
2021/03/17 06:18:42;;;;;;;11.00;7.35;;;7.40;99.90;;;;;;5039154;28;20108;-65
2021/03/17 06:21:47;;;;;;;116.80;54.40;;;10.00;97.70;;;;;;5037578;28;20395;-65
2021/03/17 06:24:53;;;;;;;69.78;32.38;;;11.80;91.60;;;;;;5039084;28;20053;-65
2021/03/17 06:27:58;;;;;;;24.02;13.65;;;12.40;86.20;;;;;;5040777;28;20044;-66
2021/03/17 06:31:03;;;;;;;20.73;11.38;;;11.60;84.40;;;;;;5039989;28;20048;-63
2021/03/17 06:34:07;;;;;;;17.95;9.10;;;10.90;86.10;;;;;;5039399;28;20060;-66
2021/03/17 06:37:12;;;;;;;16.92;8.23;;;11.60;88.90;;;;;;5044869;28;20052;-67
2021/03/17 06:40:21;;;;;;;11.85;6.85;;;13.00;85.90;;;;;;5032136;28;20507;-65
2021/03/17 06:43:44;;;;;;;11.30;6.47;;;14.60;78.90;;;;;;5035180;28;20048;-67
2021/03/17 06:47:16;;;;;;;10.23;6.50;;;16.30;73.10;;;;;;5032771;28;20048;-67
2021/03/17 06:50:29;;;;;;;12.52;6.35;;;17.20;67.20;;;;;;5031030;28;20403;-67
2021/03/17 06:53:38;;;;;;;11.55;6.40;;;17.40;62.80;;;;;;5031197;28;20053;-67
2021/03/17 06:56:43;;;;;;;9.07;5.82;;;17.60;60.80;;;;;;5028902;28;20514;-67
2021/03/17 06:59:47;;;;;;;12.13;6.45;;;17.10;61.20;;;;;;5040613;28;20048;-67
2021/03/17 07:03:01;;;;;;;8.98;5.85;;;17.90;58.70;;;;;;5044869;28;20060;-67
2021/03/17 07:06:09;;;;;;;13.77;6.78;;;17.00;57.70;;;;;;5044455;28;20538;-67
2021/03/17 07:09:24;;;;;;;8.77;6.28;;;15.50;59.00;;;;;;5027669;28;20049;-66
2021/03/17 07:12:31;;;;;;;10.40;6.13;;;16.30;60.30;;;;;;5034476;28;20060;-67
2021/03/17 07:15:38;;;;;;;9.15;6.03;;;17.10;59.80;;;;;;5036710;28;20040;-66
2021/03/17 07:18:41;;;;;;;10.50;6.32;;;18.40;57.20;;;;;;5035484;28;20052;-68
2021/03/17 07:21:46;;;;;;;11.88;7.07;;;18.70;55.80;;;;;;5036300;28;20048;-66
2021/03/17 07:24:59;;;;;;;14.80;8.35;;;17.30;55.90;;;;;;5035556;28;20056;-65
2021/03/17 07:28:05;;;;;;;12.52;7.95;;;16.40;57.80;;;;;;5030131;28;20060;-65
2021/03/17 07:31:32;;;;;;;11.43;7.15;;;14.90;60.20;;;;;;5031061;28;20052;-67
2021/03/17 07:34:36;;;;;;;12.60;7.68;;;14.30;61.50;;;;;;5030411;28;20048;-65
2021/03/17 07:37:41;;;;;;;10.43;7.20;;;13.70;63.00;;;;;;5030953;28;20419;-66
2021/03/17 07:40:47;;;;;;;14.93;9.63;;;14.20;61.90;;;;;;5036761;28;20044;-67
2021/03/17 07:43:53;;;;;;;12.93;9.07;;;14.90;60.40;;;;;;5032481;28;20040;-67
2021/03/17 07:47:00;;;;;;;18.80;9.65;;;16.30;58.90;;;;;;5033509;28;20508;-66
2021/03/17 07:50:05;;;;;;;15.88;9.40;;;18.40;55.80;;;;;;5033791;28;20060;-66
2021/03/17 07:53:20;;;;;;;13.43;10.18;;;19.50;54.20;;;;;;5036059;28;20044;-67
2021/03/17 07:56:25;;;;;;;16.13;11.70;;;18.90;53.70;;;;;;5033745;28;20044;-67
2021/03/17 07:59:30;;;;;;;16.40;11.23;;;17.00;55.10;;;;;;5029745;28;20047;-67
2021/03/17 08:02:38;;;;;;;14.23;9.68;;;15.20;57.60;;;;;;5031327;28;20044;-66
2021/03/17 08:05:51;;;;;;;14.23;9.32;;;14.10;61.40;;;;;;5028428;28;20048;-67
2021/03/17 08:09:05;;;;;;;13.93;9.57;;;15.10;60.80;;;;;;5022636;28;20044;-66
2021/03/17 08:12:29;;;;;;;15.35;8.88;;;14.10;60.90;;;;;;5041764;28;20403;-67
2021/03/17 08:15:47;;;;;;;14.80;8.60;;;15.50;60.20;;;;;;5020825;28;20044;-67
2021/03/17 08:18:53;;;;;;;12.38;7.85;;;15.70;59.00;;;;;;5027357;28;20043;-66
2021/03/17 08:22:05;;;;;;;16.48;9.90;;;15.80;56.80;;;;;;5044917;28;20048;-67
2021/03/17 08:25:10;;;;;;;16.05;9.43;;;18.10;55.30;;;;;;5042165;28;20051;-67
2021/03/17 08:28:27;;;;;;;20.30;12.35;;;17.50;55.10;;;;;;5041506;28;20116;-66
2021/03/17 08:31:38;;;;;;;17.95;8.80;;;20.70;51.30;;;;;;5031927;28;20060;-67
2021/03/17 08:34:53;;;;;;;13.30;7.57;;;21.90;50.80;;;;;;5032884;28;20545;-67
2021/03/17 08:37:58;;;;;;;7.95;5.68;;;23.50;49.20;;;;;;5028977;28;20340;-66
2021/03/17 08:41:02;;;;;;;22.38;16.33;;;24.50;42.00;;;;;;5033579;28;20049;-64
2021/03/17 08:44:27;;;;;;;9.88;7.55;;;25.80;42.40;;;;;;5045700;28;20063;-65
2021/03/17 08:47:43;;;;;;;7.07;5.15;;;23.70;39.90;;;;;;5040000;28;20052;-65
2021/03/17 08:50:48;;;;;;;5.90;4.82;;;23.60;41.90;;;;;;5034453;28;20059;-67
2021/03/17 08:53:52;;;;;;;5.72;4.70;;;24.30;42.10;;;;;;5033918;28;20044;-65
2021/03/17 08:57:01;;;;;;;7.13;4.80;;;24.20;41.60;;;;;;5037182;28;20044;-67
2021/03/17 09:00:06;;;;;;;7.00;4.18;;;21.20;42.10;;;;;;5034073;28;20044;-67
2021/03/17 09:03:33;;;;;;;8.68;4.50;;;23.00;42.70;;;;;;5034217;28;20040;-67
2021/03/17 09:06:57;;;;;;;10.60;6.95;;;23.80;41.20;;;;;;5033832;28;20056;-67
2021/03/17 09:10:08;;;;;;;14.57;9.07;;;26.20;39.50;;;;;;5034683;28;20518;-68
2021/03/17 09:13:14;;;;;;;10.82;6.97;;;27.20;36.90;;;;;;5035835;28;20044;-67
2021/03/17 09:16:18;;;;;;;29.60;20.58;;;24.30;38.50;;;;;;5037301;28;20498;-68
2021/03/17 09:19:22;;;;;;;9.88;8.05;;;26.10;39.40;;;;;;5033149;28;20049;-67
2021/03/17 09:22:32;;;;;;;5.60;3.05;;;27.30;35.00;;;;;;5036613;28;20514;-68
2021/03/17 09:25:39;;;;;;;6.88;3.40;;;29.60;35.90;;;;;;5042240;28;20392;-68
2021/03/17 09:28:44;;;;;;;3.40;2.90;;;30.20;33.90;;;;;;5036131;28;20048;-66
2021/03/17 09:31:53;;;;;;;4.82;3.50;;;24.40;35.40;;;;;;5035656;28;20044;-66
2021/03/17 09:34:57;;;;;;;4.18;2.88;;;26.10;35.90;;;;;;5037262;28;20049;-65
2021/03/17 09:38:07;;;;;;;6.45;3.15;;;25.30;35.30;;;;;;5033961;28;20036;-67
2021/03/17 09:41:23;;;;;;;4.93;3.10;;;28.40;36.70;;;;;;5033868;28;20132;-65
2021/03/17 09:44:28;;;;;;;3.05;2.75;;;29.70;36.80;;;;;;5029632;28;20411;-67
2021/03/17 09:47:33;;;;;;;5.15;2.92;;;31.30;36.10;;;;;;5030522;28;20045;-67
2021/03/17 09:50:54;;;;;;;3.95;2.38;;;30.20;32.70;;;;;;5034149;28;20048;-67
2021/03/17 09:54:02;;;;;;;6.38;3.78;;;31.80;34.10;;;;;;5031889;28;20040;-67
2021/03/17 09:57:08;;;;;;;3.92;3.10;;;29.90;33.70;;;;;;5031795;28;20515;-66
2021/03/17 10:00:24;;;;;;;4.97;3.22;;;30.40;33.30;;;;;;5035100;28;20404;-67
2021/03/17 10:03:28;;;;;;;5.80;4.03;;;30.40;33.00;;;;;;5031780;28;20396;-66
2021/03/17 10:06:39;;;;;;;4.68;3.50;;;29.40;32.80;;;;;;5031709;28;20404;-67
2021/03/17 10:09:44;;;;;;;5.82;4.00;;;30.30;33.30;;;;;;5033103;28;20557;-67
2021/03/17 10:12:49;;;;;;;5.80;4.10;;;29.10;32.70;;;;;;5031493;28;20036;-66
2021/03/17 10:15:54;;;;;;;7.18;3.97;;;28.10;33.00;;;;;;5036397;28;20032;-67
2021/03/17 10:18:59;;;;;;;6.13;4.35;;;29.70;33.00;;;;;;5037628;28;20048;-67
2021/03/17 10:22:04;;;;;;;6.05;3.60;;;30.60;31.40;;;;;;5034536;28;20048;-67
2021/03/17 10:25:14;;;;;;;3.60;2.70;;;29.80;32.30;;;;;;5041819;28;20052;-67
2021/03/17 10:28:20;;;;;;;5.13;2.40;;;27.50;29.70;;;;;;5032087;28;20052;-67
2021/03/17 10:31:24;;;;;;;3.00;2.03;;;23.60;33.80;;;;;;5034082;28;20049;-67
2021/03/17 10:34:30;;;;;;;3.75;2.28;;;22.90;33.50;;;;;;5031134;28;20040;-67
2021/03/17 10:37:35;;;;;;;3.17;2.55;;;24.90;34.40;;;;;;5039876;28;20060;-66
2021/03/17 10:40:41;;;;;;;3.20;2.10;;;25.80;32.00;;;;;;5047636;23;20041;-59
2021/03/17 10:43:51;;;;;;;3.33;2.10;;;27.60;31.70;;;;;;4970928;28;20062;-62
2021/03/17 10:47:16;;;;;;;4.18;3.05;;;26.90;31.00;;;;;;4960424;28;20058;-62
2021/03/17 10:50:37;;;;;;;4.38;2.65;;;29.20;31.10;;;;;;4967816;28;20047;-62
2021/03/17 10:53:48;;;;;;;2.53;2.05;;;24.50;31.80;;;;;;4971583;28;20059;-60
2021/03/17 10:56:56;;;;;;;3.17;2.00;;;26.70;30.00;;;;;;4962248;28;20042;-60
2021/03/17 11:00:11;;;;;;;4.75;2.08;;;29.00;30.10;;;;;;4973195;28;20037;-60
2021/03/17 11:03:34;;;;;;;2.45;2.08;;;30.80;29.80;;;;;;4958157;28;20108;-60
2021/03/17 11:06:38;;;;;;;5.53;3.80;;;30.70;30.00;;;;;;4962921;28;20046;-58
2021/03/17 11:09:16;;;;;;;3.58;2.88;;;28.90;30.10;;;;;;5116329;27;20163;-59
2021/03/17 11:12:30;;;;;;;4.18;2.97;;;27.80;30.90;;;;;;5089032;28;20036;-59
2021/03/17 11:15:41;;;;;;;3.80;3.05;;;27.90;31.20;;;;;;5090030;28;20395;-59
2021/03/17 11:18:45;;;;;;;3.63;3.05;;;27.20;32.10;;;;;;5091027;28;20032;-59
2021/03/17 11:21:50;;;;;;;5.15;2.78;;;27.60;32.30;;;;;;5092367;28;20044;-60
2021/03/17 11:25:05;;;;;;;2.90;2.10;;;28.90;31.20;;;;;;5100723;28;20044;-59
2021/03/17 11:28:15;;;;;;;3.10;2.13;;;28.30;30.20;;;;;;5095091;28;20040;-59
2021/03/17 11:31:26;;;;;;;4.13;2.08;;;27.70;31.10;;;;;;5106695;28;20036;-60
2021/03/17 11:34:30;;;;;;;2.90;2.03;;;28.80;30.70;;;;;;5102422;28;20403;-60
2021/03/17 11:37:34;;;;;;;2.88;2.03;;;31.50;29.60;;;;;;5093938;28;20039;-60
2021/03/17 11:40:40;;;;;;;1.85;1.67;;;33.00;28.90;;;;;;5095275;28;20501;-59
2021/03/17 11:43:44;;;;;;;2.42;1.70;;;32.90;28.40;;;;;;5099158;28;20048;-59
2021/03/17 11:46:50;;;;;;;3.47;1.77;;;32.70;27.90;;;;;;5097922;28;20040;-59
2021/03/17 11:49:54;;;;;;;3.22;2.00;;;31.50;28.70;;;;;;5087540;28;20040;-56
2021/03/17 11:52:58;;;;;;;1.92;1.70;;;28.60;29.90;;;;;;5093667;28;20036;-59
2021/03/17 11:56:05;;;;;;;2.08;1.63;;;29.10;31.10;;;;;;5086399;28;20035;-60
2021/03/17 11:59:10;;;;;;;1.50;1.40;;;32.00;29.70;;;;;;5088826;28;20032;-59
2021/03/17 12:02:14;;;;;;;2.15;1.45;;;33.10;29.20;;;;;;5093980;28;20048;-60
2021/03/17 12:05:19;;;;;;;1.92;1.60;;;34.40;28.70;;;;;;5099355;28;20395;-60
2021/03/17 12:08:24;;;;;;;1.65;1.30;;;33.80;28.50;;;;;;5095366;28;20032;-60
2021/03/17 12:11:30;;;;;;;2.03;1.50;;;33.50;28.50;;;;;;5099466;28;20040;-60
2021/03/17 12:14:34;;;;;;;2.00;1.65;;;34.10;27.80;;;;;;5095778;28;20040;-59
2021/03/17 12:17:39;;;;;;;3.53;1.50;;;32.40;28.60;;;;;;5091238;28;20052;-59
2021/03/17 12:20:44;;;;;;;2.75;1.60;;;29.30;28.60;;;;;;5073790;28;20049;-58
2021/03/17 12:23:51;;;;;;;4.60;1.70;;;25.80;30.20;;;;;;5075167;28;20032;-60
2021/03/17 12:26:55;;;;;;;3.25;1.90;;;22.10;33.60;;;;;;5081741;28;20051;-59
2021/03/17 12:30:00;;;;;;;2.70;1.70;;;18.10;37.30;;;;;;5086025;28;20051;-58
2021/03/17 12:33:05;;;;;;;3.50;1.88;;;16.50;38.50;;;;;;5084837;28;20498;-58
2021/03/17 12:36:09;;;;;;;3.78;1.70;;;16.40;39.90;;;;;;5077826;28;20202;-59
2021/03/17 12:39:14;;;;;;;2.10;1.58;;;15.90;40.10;;;;;;5085547;28;20047;-59
2021/03/17 12:42:18;;;;;;;3.80;1.88;;;15.40;41.10;;;;;;5088546;28;20048;-58
2021/03/17 12:45:28;;;;;;;3.55;1.60;;;14.70;40.40;;;;;;5085062;28;20043;-58
2021/03/17 12:48:33;;;;;;;4.28;1.90;;;14.90;42.20;;;;;;5076253;28;20183;-57
2021/03/17 12:51:38;;;;;;;3.72;2.00;;;15.30;42.10;;;;;;5079331;28;20033;-56
2021/03/17 12:54:43;;;;;;;3.25;1.75;;;18.10;39.90;;;;;;5084008;28;20044;-58
2021/03/17 12:57:47;;;;;;;2.50;1.55;;;21.10;36.20;;;;;;5078335;28;20027;-60
2021/03/17 13:00:52;;;;;;;2.50;1.48;;;22.80;33.70;;;;;;5088568;28;20031;-60
2021/03/17 13:03:56;;;;;;;3.13;1.95;;;21.90;34.20;;;;;;5085089;28;20043;-59
2021/03/17 13:07:00;;;;;;;2.47;1.42;;;21.40;35.40;;;;;;5081792;28;20040;-56
2021/03/17 13:10:08;;;;;;;1.58;1.30;;;23.40;32.50;;;;;;5073770;28;20049;-58
2021/03/17 13:13:12;;;;;;;2.15;1.50;;;23.50;31.90;;;;;;5070648;28;20490;-60
2021/03/17 13:16:16;;;;;;;1.77;1.27;;;22.30;33.50;;;;;;5086331;28;20848;-60
2021/03/17 13:19:21;;;;;;;2.15;1.30;;;22.90;33.00;;;;;;5080656;28;20036;-58
2021/03/17 13:22:25;;;;;;;1.90;1.33;;;25.70;30.50;;;;;;5079158;28;20032;-58
2021/03/17 13:25:31;;;;;;;1.13;0.90;;;26.20;30.20;;;;;;5076667;28;20031;-58
2021/03/17 13:28:36;;;;;;;3.50;1.05;;;25.50;30.00;;;;;;5071039;28;20040;-60
2021/03/17 13:31:40;;;;;;;1.20;1.10;;;24.20;30.00;;;;;;5069991;28;20044;-61
2021/03/17 13:34:44;;;;;;;1.42;1.00;;;20.90;30.60;;;;;;5074568;28;20024;-58
2021/03/17 13:37:48;;;;;;;2.97;1.48;;;22.30;31.20;;;;;;5078555;28;20138;-59
2021/03/17 13:40:53;;;;;;;1.77;1.27;;;22.20;30.60;;;;;;5088034;28;20402;-59
2021/03/17 13:43:58;;;;;;;4.20;1.50;;;23.00;30.80;;;;;;5069350;28;20507;-59
2021/03/17 13:47:02;;;;;;;2.22;1.20;;;23.80;30.60;;;;;;5077121;28;20033;-59
2021/03/17 13:50:10;;;;;;;3.05;1.20;;;25.10;30.20;;;;;;5082149;28;20036;-60
2021/03/17 13:53:14;;;;;;;2.10;0.85;;;27.40;29.10;;;;;;5077469;28;20032;-60
2021/03/17 13:56:20;;;;;;;6.35;0.98;;;28.70;29.80;;;;;;5082970;28;20403;-59
2021/03/17 13:59:24;;;;;;;1.98;1.10;;;29.10;29.30;;;;;;5078780;28;20052;-59
2021/03/17 14:02:29;;;;;;;1.77;1.08;;;29.90;29.30;;;;;;5075651;28;20047;-58
2021/03/17 14:05:33;;;;;;;2.83;1.30;;;28.40;28.60;;;;;;5081170;28;20044;-59
2021/03/17 14:08:38;;;;;;;1.83;1.00;;;27.60;28.80;;;;;;5080322;28;20042;-60
2021/03/17 14:11:43;;;;;;;0.98;0.80;;;27.20;28.30;;;;;;5081684;28;20043;-60
2021/03/17 14:14:47;;;;;;;1.27;0.90;;;27.10;28.50;;;;;;5086456;28;20483;-59
2021/03/17 14:17:52;;;;;;;1.33;0.70;;;27.80;29.40;;;;;;5081605;28;20047;-60
2021/03/17 14:20:57;;;;;;;0.60;0.55;;;28.90;28.70;;;;;;5074277;28;20047;-59
2021/03/17 14:24:01;;;;;;;1.77;1.30;;;29.00;27.80;;;;;;5077683;28;20051;-59
2021/03/17 14:27:05;;;;;;;0.80;0.63;;;28.50;28.50;;;;;;5080187;28;20051;-60
2021/03/17 14:30:12;;;;;;;1.10;0.85;;;28.40;28.60;;;;;;5087466;28;20043;-59
2021/03/17 14:33:16;;;;;;;1.05;0.68;;;29.30;27.90;;;;;;5084953;28;20040;-61
2021/03/17 14:36:20;;;;;;;1.08;0.68;;;29.20;27.70;;;;;;5090159;28;20054;-59
2021/03/17 14:39:24;;;;;;;1.00;0.52;;;28.90;27.70;;;;;;5079031;28;20035;-57
2021/03/17 14:42:29;;;;;;;0.88;0.65;;;26.30;27.20;;;;;;5076054;28;20045;-59
2021/03/17 14:45:33;;;;;;;1.15;0.68;;;25.30;28.60;;;;;;5081863;28;20046;-61
2021/03/17 14:48:37;;;;;;;2.03;0.90;;;24.90;29.30;;;;;;5078029;28;20036;-59
2021/03/17 14:51:41;;;;;;;1.95;1.00;;;23.60;30.00;;;;;;5083973;28;20039;-58
2021/03/17 14:54:45;;;;;;;2.75;0.77;;;22.90;31.30;;;;;;5085737;28;20031;-56
2021/03/17 14:57:50;;;;;;;2.15;0.90;;;21.90;31.50;;;;;;5072534;28;20520;-58
2021/03/17 15:00:54;;;;;;;1.42;0.77;;;21.50;32.80;;;;;;5094647;28;20043;-61
2021/03/17 15:03:59;;;;;;;1.60;1.00;;;21.00;32.60;;;;;;5084008;28;20402;-61
2021/03/17 15:07:03;;;;;;;1.42;1.00;;;20.40;32.80;;;;;;5073903;28;20028;-59
2021/03/17 15:10:11;;;;;;;2.30;1.05;;;20.30;34.50;;;;;;5084057;28;20043;-59
2021/03/17 15:13:15;;;;;;;1.92;0.80;;;20.20;33.90;;;;;;5068366;28;20525;-60
2021/03/17 15:16:19;;;;;;;1.63;0.70;;;20.40;33.50;;;;;;5085399;28;20032;-60
2021/03/17 15:19:24;;;;;;;1.33;0.90;;;20.50;31.60;;;;;;5086835;28;20048;-58
2021/03/17 15:22:29;;;;;;;1.73;0.77;;;20.70;31.70;;;;;;5085596;28;20040;-58
2021/03/17 15:25:34;;;;;;;1.85;0.90;;;19.70;30.20;;;;;;5080201;28;20815;-59
2021/03/17 15:28:45;;;;;;;1.40;0.70;;;17.30;31.70;;;;;;5085677;28;20059;-59
2021/03/17 15:31:49;;;;;;;2.95;0.95;;;17.60;31.70;;;;;;5082695;28;20278;-60
2021/03/17 15:34:54;;;;;;;1.70;0.90;;;17.80;33.00;;;;;;5078081;28;20047;-58
2021/03/17 15:37:58;;;;;;;1.92;0.70;;;17.60;32.00;;;;;;5082554;28;20049;-58
2021/03/17 15:41:03;;;;;;;4.55;0.80;;;17.20;31.90;;;;;;5079573;28;21740;-58
2021/03/17 15:44:08;;;;;;;1.25;0.82;;;17.00;33.40;;;;;;5094449;28;20127;-58
2021/03/17 15:47:12;;;;;;;3.17;1.50;;;16.00;34.50;;;;;;5094417;28;20044;-58
2021/03/17 15:50:20;;;;;;;3.15;1.10;;;14.60;33.40;;;;;;5087763;28;20047;-59
2021/03/17 15:53:24;;;;;;;1.88;1.00;;;14.60;34.80;;;;;;5085135;28;20071;-59
2021/03/17 15:56:28;;;;;;;3.33;2.28;;;14.60;37.00;;;;;;5082542;28;20045;-58
2021/03/17 15:59:32;;;;;;;2.38;1.60;;;14.00;36.90;;;;;;5075532;28;20040;-59
2021/03/17 16:02:37;;;;;;;19.13;10.70;;;13.50;39.60;;;;;;5095221;28;20052;-59
2021/03/17 16:05:43;;;;;;;8.60;5.20;;;13.70;41.10;;;;;;5080198;28;20074;-58
2021/03/17 16:08:47;;;;;;;22.63;14.98;;;14.20;36.70;;;;;;5071818;28;20406;-64
2021/03/17 16:11:52;;;;;;;7.28;4.30;;;14.70;39.50;;;;;;5075548;28;20039;-58
2021/03/17 16:14:57;;;;;;;5.50;4.03;;;14.90;38.10;;;;;;5078628;28;20517;-59